CLMO2: North Canadian River

Data processed at Fri Mar 09 2018 23:25


All information presented herein is the property of the government of the United States of America and may be revised or deleted at any time without prior notice.
Dissemination of this information without the expressed written consent of the Public Affairs Office, Tulsa District U.S. Army Corps of Engineers is strictly prohibited.
These data are gathered electronically and, as presented, have not undergone any form of quality control. These data are not guaranteed to be valid or correct.
Go to home page.
Go to station list.

Upstream stations:

Downstream station:
Previous Day
Next Day
Current Day
    
SHEF ID:       CLMO2     North Canadian River near Calume
STATION TYPE:  

                STAGE  STAGE(2)  RIV-FLOW  WTR-TEMP   DIS-OXY        PH   CONDUCT  BAT-LOAD
                   ft        ft       cfs         F      mg/l        su   umho/cm      volt
              Ccp-Rev   Ccp-Rev   Ccp-Rev   Ccp-Rev   Ccp-Rev   Ccp-Rev   Ccp-Rev   Ccp-Rev
(US/Central)
03/07 00:00      3.37      3.83        16     47.62      7.42      8.30      1460     12.65
03/07 01:00      3.45      3.83        19     46.65      7.41      8.30      1462     12.57
03/07 02:00      3.47      3.85        20     45.82      7.41      8.30      1463     12.57
03/07 03:00      3.52      3.84        22     44.92      7.42      8.30      1466     12.57
03/07 04:00      3.54      3.84        23     44.10      7.43      8.30      1463     12.49
03/07 05:00      3.55      3.84        23     43.29      7.46      8.30      1466     12.49
03/07 06:00      3.58      3.84        25     42.71      7.48      8.30      1468     12.41
03/07 07:00      3.57      3.82        24     42.04      7.51      8.30      1472     12.41
03/07 08:00      3.91      3.77        43     41.56      7.55      8.30      1475     12.41
03/07 09:00      3.97      3.76        46     41.77      7.61      8.30      1478     13.21
03/07 10:00      3.96      3.76        46     42.98      7.67      8.30      1477     13.21
03/07 11:00      3.85      3.77        39     45.07      7.73      8.30      1478     13.37
03/07 12:00      3.86      3.77        40     47.61      7.78      8.30      1474     13.44
03/07 13:00      3.92      3.75        43     50.14      7.83      8.30      1468     13.37
03/07 14:00      3.97      3.81        46     52.57      7.87      8.30      1458     13.37
03/07 15:00      3.96      3.79        46     54.43      7.92      8.40      1443     13.44
03/07 16:00      3.94      3.75        44     55.31      7.98      8.40      1420     13.21
03/07 17:00      3.92      3.74        43     55.08      8.02      8.40      1435     13.05
03/07 18:00      3.80      3.74        36     54.28      8.03      8.40      1423     12.97
03/07 19:00      3.43      3.73        18     53.33      7.97      8.40      1413     12.81
03/07 20:00      3.21      3.73        10     52.16      7.89      8.40      1409     12.73
03/07 21:00      3.17      3.74         9     50.81      7.82      8.40      1415     12.65
03/07 22:00      3.20      3.75        10     49.68      7.75      8.40      1417     12.65
03/07 23:00      3.29      3.75        13     48.58      7.70      8.30      1426     12.65